createdAt,value
2023-04-26T00:01:51.279Z,100.00
2023-04-26T00:04:18.813Z,100.00
2023-04-26T00:06:46.376Z,100.00
2023-04-26T00:09:13.796Z,100.00
2023-04-26T00:11:41.266Z,98.95
2023-04-26T00:14:08.681Z,99.08
2023-04-26T00:16:36.204Z,100.00
2023-04-26T00:19:04.314Z,100.00
2023-04-26T00:21:31.950Z,100.00
2023-04-26T00:23:59.298Z,100.00
2023-04-26T00:26:26.832Z,100.00
2023-04-26T00:28:54.402Z,100.00
2023-04-26T00:31:22.026Z,100.00
2023-04-26T00:33:49.467Z,99.95
2023-04-26T00:36:19.380Z,99.57
2023-04-26T00:38:47.036Z,100.00
2023-04-26T00:41:14.790Z,100.00
2023-04-26T00:43:42.464Z,100.00
2023-04-26T00:46:13.308Z,100.00
2023-04-26T00:48:41.514Z,100.00
2023-04-26T00:51:09.732Z,100.00
2023-04-26T00:53:37.232Z,100.00
2023-04-26T00:56:07.424Z,100.00
2023-04-26T00:58:34.969Z,100.00
2023-04-26T01:01:02.806Z,100.00
2023-04-26T01:03:30.745Z,100.00
2023-04-26T01:05:58.639Z,100.00
2023-04-26T01:08:26.167Z,100.00
2023-04-26T01:10:53.932Z,100.00
2023-04-26T01:13:21.667Z,100.00
2023-04-26T01:15:49.385Z,100.00
2023-04-26T01:18:18.280Z,100.00
2023-04-26T01:20:46.857Z,100.00
2023-04-26T01:23:14.373Z,97.77
2023-04-26T01:25:41.979Z,100.00
2023-04-26T01:28:09.546Z,99.08
2023-04-26T01:30:36.917Z,96.44
2023-04-26T01:33:04.328Z,97.45
2023-04-26T01:35:31.851Z,96.58
2023-04-26T01:37:59.224Z,97.34
2023-04-26T01:40:28.787Z,98.79
2023-04-26T01:42:56.288Z,97.71
2023-04-26T01:45:24.192Z,97.79
2023-04-26T01:48:10.460Z,98.15
2023-04-26T01:50:37.771Z,95.45
2023-04-26T01:53:05.165Z,93.41
2023-04-26T01:55:34.141Z,95.09
2023-04-26T01:58:02.015Z,98.12
2023-04-26T02:00:30.157Z,99.43
2023-04-26T02:02:58.159Z,99.21
2023-04-26T02:05:25.620Z,98.52
2023-04-26T02:07:53.047Z,96.96
2023-04-26T02:10:20.374Z,95.00
2023-04-26T02:12:47.756Z,95.57
2023-04-26T02:15:15.411Z,95.22
2023-04-26T02:17:43.005Z,95.53
2023-04-26T02:20:11.422Z,95.84
2023-04-26T02:22:38.890Z,95.53
2023-04-26T02:25:07.295Z,94.68
2023-04-26T02:27:34.859Z,95.42
2023-04-26T02:30:02.289Z,94.71
2023-04-26T02:32:30.096Z,92.62
2023-04-26T02:34:58.267Z,92.27
2023-04-26T02:37:26.741Z,91.41
2023-04-26T02:39:54.275Z,93.45
2023-04-26T02:42:21.773Z,92.76
2023-04-26T02:44:49.360Z,92.91
2023-04-26T02:47:16.978Z,94.03
2023-04-26T02:49:44.479Z,94.08
2023-04-26T02:52:11.725Z,93.63
2023-04-26T02:54:39.207Z,94.03
2023-04-26T02:57:08.322Z,94.56
2023-04-26T02:59:35.802Z,94.46
2023-04-26T03:02:03.237Z,94.50
2023-04-26T03:04:34.031Z,95.49
2023-04-26T03:07:02.711Z,94.04
2023-04-26T03:09:30.895Z,93.50
2023-04-26T03:11:58.751Z,94.75
2023-04-26T03:14:27.043Z,96.38
2023-04-26T03:16:55.178Z,96.76
2023-04-26T03:19:22.504Z,95.48
2023-04-26T03:21:50.777Z,95.76
2023-04-26T03:24:18.342Z,97.13
2023-04-26T03:26:46.159Z,96.30
2023-04-26T03:29:14.016Z,97.00
2023-04-26T03:31:41.359Z,98.77
2023-04-26T03:34:09.355Z,98.00
2023-04-26T03:36:36.921Z,98.25
2023-04-26T03:39:08.393Z,98.25
2023-04-26T03:41:39.394Z,99.78
2023-04-26T03:44:09.092Z,99.61
2023-04-26T03:46:44.047Z,100.00
2023-04-26T03:49:11.464Z,100.00
2023-04-26T03:51:39.042Z,100.00
2023-04-26T03:54:06.603Z,100.00
2023-04-26T03:56:34.116Z,99.91
2023-04-26T03:59:02.003Z,100.00
2023-04-26T04:01:29.543Z,100.00
2023-04-26T04:03:57.806Z,100.00
2023-04-26T04:06:25.557Z,100.00
2023-04-26T04:08:53.340Z,100.00
2023-04-26T04:11:21.680Z,100.00
2023-04-26T04:13:49.174Z,100.00
2023-04-26T04:16:16.757Z,100.00
2023-04-26T04:18:44.204Z,100.00
2023-04-26T04:21:11.985Z,100.00
2023-04-26T04:23:40.068Z,100.00
2023-04-26T04:26:12.624Z,100.00
2023-04-26T04:28:41.724Z,100.00
2023-04-26T04:31:13.124Z,100.00
2023-04-26T04:33:41.592Z,100.00
2023-04-26T04:36:09.736Z,100.00
2023-04-26T04:38:37.458Z,100.00
2023-04-26T04:41:06.047Z,100.00
2023-04-26T04:43:34.746Z,100.00
2023-04-26T04:46:02.479Z,100.00
2023-04-26T04:48:30.068Z,100.00
2023-04-26T04:50:58.384Z,100.00
2023-04-26T04:53:25.928Z,100.00
2023-04-26T04:55:53.452Z,100.00
2023-04-26T04:58:22.606Z,100.00
2023-04-26T05:00:52.576Z,100.00
2023-04-26T05:03:24.766Z,100.00
2023-04-26T05:05:52.310Z,100.00
2023-04-26T05:08:20.158Z,100.00
2023-04-26T05:10:47.657Z,100.00
2023-04-26T05:13:15.495Z,100.00
2023-04-26T05:15:43.026Z,100.00
2023-04-26T05:18:10.537Z,100.00
2023-04-26T05:20:39.151Z,100.00
2023-04-26T05:23:23.065Z,100.00
2023-04-26T05:25:51.185Z,100.00
2023-04-26T05:28:46.249Z,100.00
2023-04-26T05:31:26.094Z,99.92
2023-04-26T05:34:16.272Z,100.00
2023-04-26T05:36:47.838Z,100.00
2023-04-26T05:39:15.953Z,100.00
2023-04-26T05:41:43.408Z,100.00
2023-04-26T05:44:10.971Z,100.00
2023-04-26T05:46:43.072Z,99.82
2023-04-26T05:49:11.199Z,100.00
2023-04-26T05:51:38.633Z,97.67
2023-04-26T05:54:06.476Z,97.26
2023-04-26T05:56:34.085Z,95.25
2023-04-26T05:59:02.285Z,94.43
2023-04-26T06:01:30.108Z,91.44
2023-04-26T06:04:00.876Z,90.72
2023-04-26T06:06:34.012Z,89.98
2023-04-26T06:09:01.651Z,90.75
2023-04-26T06:11:29.525Z,90.58
2023-04-26T06:13:56.984Z,90.51
2023-04-26T06:16:25.991Z,91.72
2023-04-26T06:18:53.495Z,91.15
2023-04-26T06:21:20.993Z,90.98
2023-04-26T06:23:48.424Z,90.97
2023-04-26T06:26:18.735Z,88.51
2023-04-26T06:28:46.900Z,88.66
2023-04-26T06:31:15.032Z,84.67
2023-04-26T06:33:42.709Z,79.05
2023-04-26T06:36:13.440Z,78.62
2023-04-26T06:38:41.890Z,73.89
2023-04-26T06:41:09.348Z,72.47
2023-04-26T06:43:37.078Z,73.53
2023-04-26T06:46:14.704Z,69.55
2023-04-26T06:48:42.573Z,70.42
2023-04-26T06:51:10.021Z,70.68
2023-04-26T06:53:37.558Z,69.72
2023-04-26T06:56:05.335Z,70.54
2023-04-26T06:58:32.817Z,69.86
2023-04-26T07:01:00.278Z,67.55
2023-04-26T07:03:28.036Z,63.22
2023-04-26T07:05:56.706Z,66.19
2023-04-26T07:08:24.134Z,60.25
2023-04-26T07:10:52.120Z,60.36
2023-04-26T07:13:19.570Z,60.86
2023-04-26T07:15:47.007Z,55.89
2023-04-26T07:18:14.549Z,54.69
2023-04-26T07:20:42.138Z,55.33
2023-04-26T07:23:09.505Z,53.28
2023-04-26T07:25:36.995Z,53.85
2023-04-26T07:28:04.599Z,53.96
2023-04-26T07:30:32.592Z,54.65
2023-04-26T07:33:00.748Z,53.94
2023-04-26T07:35:28.626Z,53.95
2023-04-26T07:37:56.587Z,53.83
2023-04-26T07:40:26.189Z,54.43
2023-04-26T07:42:53.627Z,53.42
2023-04-26T07:45:21.582Z,52.79
2023-04-26T07:47:49.237Z,53.40
2023-04-26T07:50:16.796Z,55.57
2023-04-26T07:52:44.568Z,54.26
2023-04-26T07:55:11.957Z,55.14
2023-04-26T07:57:39.249Z,56.20
2023-04-26T08:00:10.365Z,56.29
2023-04-26T08:02:45.025Z,55.10
2023-04-26T08:05:18.034Z,55.37
2023-04-26T08:07:45.692Z,54.69
2023-04-26T08:10:13.024Z,54.83
2023-04-26T08:12:40.439Z,57.19
2023-04-26T08:15:08.346Z,55.37
2023-04-26T08:17:35.861Z,53.37
2023-04-26T08:20:05.856Z,55.70
2023-04-26T08:22:33.217Z,54.29
2023-04-26T08:25:00.753Z,55.24
2023-04-26T08:27:28.216Z,53.98
2023-04-26T08:29:55.601Z,53.83
2023-04-26T08:32:22.936Z,54.33
2023-04-26T08:34:50.443Z,54.71
2023-04-26T08:37:17.861Z,53.79
2023-04-26T08:39:45.169Z,52.86
2023-04-26T08:42:16.878Z,51.19
2023-04-26T08:44:44.815Z,50.40
2023-04-26T08:47:23.698Z,52.53
2023-04-26T08:50:01.000Z,53.48
2023-04-26T08:52:30.058Z,51.57
2023-04-26T08:54:58.923Z,51.28
2023-04-26T08:57:26.828Z,49.70
2023-04-26T08:59:57.856Z,50.04
2023-04-26T09:02:25.371Z,50.49
2023-04-26T09:04:53.108Z,50.21
2023-04-26T09:07:22.289Z,46.85
2023-04-26T09:09:51.572Z,46.83
2023-04-26T09:12:20.913Z,46.74
2023-04-26T09:14:48.732Z,47.66
2023-04-26T09:17:26.935Z,48.22
2023-04-26T09:19:55.692Z,49.21
2023-04-26T09:22:30.386Z,49.66
2023-04-26T09:24:58.401Z,47.19
2023-04-26T09:27:38.039Z,47.32
2023-04-26T09:30:09.588Z,46.99
2023-04-26T09:32:43.748Z,45.80
2023-04-26T09:35:33.488Z,46.68
2023-04-26T09:38:14.877Z,49.79
2023-04-26T09:40:47.105Z,51.45
2023-04-26T09:43:21.159Z,53.19
2023-04-26T09:45:52.174Z,54.08
2023-04-26T09:48:23.428Z,53.71
2023-04-26T09:50:54.979Z,54.34
2023-04-26T09:53:34.349Z,52.23
2023-04-26T09:56:10.442Z,52.64
2023-04-26T09:58:39.195Z,54.07
2023-04-26T10:01:08.045Z,52.74
2023-04-26T10:03:37.118Z,52.09
2023-04-26T10:06:05.125Z,51.63
2023-04-26T10:08:33.616Z,50.74
2023-04-26T10:11:04.200Z,53.06
2023-04-26T10:13:34.989Z,53.20
2023-04-26T10:16:03.541Z,51.99
2023-04-26T10:18:34.313Z,52.82
2023-04-26T10:21:22.639Z,52.17
2023-04-26T10:23:50.700Z,52.70
2023-04-26T10:26:54.915Z,52.78
2023-04-26T10:29:27.079Z,54.52
2023-04-26T10:32:06.809Z,53.42
2023-04-26T10:34:35.320Z,54.13
2023-04-26T10:37:18.399Z,55.80
2023-04-26T10:39:47.109Z,57.70
2023-04-26T10:42:32.305Z,58.22
2023-04-26T10:45:00.326Z,56.17
2023-04-26T10:47:34.905Z,53.87
2023-04-26T10:50:11.876Z,55.32
2023-04-26T10:53:02.584Z,56.52
2023-04-26T10:55:41.901Z,57.48
2023-04-26T10:58:34.673Z,55.07
2023-04-26T11:01:13.302Z,52.78
2023-04-26T11:03:41.350Z,52.06
2023-04-26T11:06:15.766Z,52.13
2023-04-26T11:08:43.340Z,52.83
2023-04-26T11:11:12.437Z,54.02
2023-04-26T11:13:41.470Z,53.10
2023-04-26T11:16:10.205Z,53.80
2023-04-26T11:18:39.744Z,54.79
2023-04-26T11:21:08.287Z,53.10
2023-04-26T11:23:36.539Z,54.72
2023-04-26T11:26:06.652Z,53.31
2023-04-26T11:28:36.753Z,55.48
2023-04-26T11:31:06.413Z,55.42
2023-04-26T11:33:37.000Z,57.31
2023-04-26T11:36:04.585Z,55.91
2023-04-26T11:38:31.993Z,53.94
2023-04-26T11:41:03.934Z,53.30
2023-04-26T11:43:35.664Z,51.24
2023-04-26T11:46:04.834Z,52.16
2023-04-26T11:48:34.672Z,54.48
2023-04-26T11:51:03.935Z,52.08
2023-04-26T11:53:38.551Z,51.02
2023-04-26T11:56:17.912Z,52.42
2023-04-26T11:58:52.933Z,52.48
2023-04-26T12:01:29.014Z,54.38
2023-04-26T12:03:59.195Z,50.54
2023-04-26T12:06:32.850Z,50.48
2023-04-26T12:09:05.464Z,49.93
2023-04-26T12:11:32.984Z,50.59
2023-04-26T12:14:01.525Z,48.35
2023-04-26T12:16:29.055Z,47.61
2023-04-26T12:18:59.529Z,48.72
2023-04-26T12:21:30.467Z,50.52
2023-04-26T12:23:58.302Z,52.62
2023-04-26T12:26:49.480Z,54.10
2023-04-26T12:29:17.115Z,55.96
2023-04-26T12:31:44.590Z,53.95
2023-04-26T12:34:12.341Z,53.57
2023-04-26T12:36:45.886Z,54.00
2023-04-26T12:39:15.573Z,53.57
2023-04-26T12:41:44.354Z,52.68
2023-04-26T12:44:12.512Z,53.90
2023-04-26T12:46:39.971Z,52.41
2023-04-26T12:49:07.680Z,50.04
2023-04-26T12:51:35.256Z,50.94
2023-04-26T12:54:02.855Z,52.12
2023-04-26T12:56:30.476Z,50.12
2023-04-26T12:58:57.905Z,49.77
2023-04-26T13:01:26.172Z,50.11
2023-04-26T13:03:55.664Z,50.28
2023-04-26T13:06:23.264Z,49.81
2023-04-26T13:08:50.791Z,51.11
2023-04-26T13:11:36.392Z,50.94
2023-04-26T13:14:04.116Z,49.33
2023-04-26T13:16:32.962Z,46.97
2023-04-26T13:19:01.135Z,46.91
2023-04-26T13:21:28.989Z,46.21
2023-04-26T13:23:56.369Z,46.30
2023-04-26T13:26:25.791Z,46.80
2023-04-26T13:28:54.530Z,47.66
2023-04-26T13:31:22.172Z,47.58
2023-04-26T13:33:49.925Z,38.08
2023-04-26T13:36:17.545Z,40.93
2023-04-26T13:38:45.083Z,42.65
2023-04-26T13:41:12.573Z,44.26
2023-04-26T13:43:40.269Z,46.38
2023-04-26T13:46:08.121Z,44.44
2023-04-26T13:48:35.475Z,41.72
2023-04-26T13:51:04.059Z,42.43
2023-04-26T13:53:32.890Z,43.56
2023-04-26T13:56:00.184Z,40.88
2023-04-26T13:58:27.535Z,41.88
2023-04-26T14:00:55.583Z,41.13
2023-04-26T14:03:23.368Z,40.25
2023-04-26T14:05:50.886Z,37.47
2023-04-26T14:08:18.455Z,40.09
2023-04-26T14:10:46.834Z,41.31
2023-04-26T14:13:16.020Z,39.13
2023-04-26T14:15:44.074Z,40.20
2023-04-26T14:18:11.636Z,39.28
2023-04-26T14:20:39.192Z,38.64
2023-04-26T14:23:06.642Z,38.13
2023-04-26T14:25:34.094Z,38.63
2023-04-26T14:28:01.841Z,38.44
2023-04-26T14:30:29.328Z,40.40
2023-04-26T14:32:56.701Z,40.89
2023-04-26T14:35:24.364Z,40.14
2023-04-26T14:37:51.877Z,40.34
2023-04-26T14:40:19.309Z,41.27
2023-04-26T14:42:46.760Z,36.58
2023-04-26T14:45:14.787Z,37.41
2023-04-26T14:48:07.873Z,38.98
2023-04-26T14:50:35.182Z,40.73
2023-04-26T14:53:02.470Z,40.11
2023-04-26T14:55:29.860Z,39.99
2023-04-26T14:57:57.183Z,40.74
2023-04-26T15:00:25.582Z,39.84
2023-04-26T15:02:53.033Z,39.66
2023-04-26T15:05:21.732Z,39.08
2023-04-26T15:07:49.021Z,39.15
2023-04-26T15:10:16.351Z,38.17
2023-04-26T15:12:43.634Z,36.94
2023-04-26T15:15:11.454Z,37.36
2023-04-26T15:17:38.953Z,38.73
2023-04-26T15:20:06.842Z,39.09
2023-04-26T15:22:35.315Z,38.37
2023-04-26T15:25:04.434Z,37.41
2023-04-26T15:27:33.801Z,38.36
2023-04-26T15:30:01.851Z,36.91
2023-04-26T15:32:29.852Z,37.50
2023-04-26T15:34:57.589Z,38.14
2023-04-26T15:37:24.999Z,37.65
2023-04-26T15:39:52.317Z,38.63
2023-04-26T15:42:19.736Z,38.56
2023-04-26T15:44:47.074Z,38.67
2023-04-26T15:47:15.048Z,38.95
2023-04-26T15:49:42.433Z,38.51
2023-04-26T15:52:09.738Z,38.03
2023-04-26T15:54:37.018Z,38.61
2023-04-26T15:57:04.626Z,37.63
2023-04-26T15:59:32.376Z,38.07
2023-04-26T16:01:59.779Z,38.04
2023-04-26T16:04:27.699Z,38.58
2023-04-26T16:06:55.283Z,38.47
2023-04-26T16:09:25.243Z,37.43
2023-04-26T16:11:53.115Z,39.50
2023-04-26T16:14:20.439Z,39.22
2023-04-26T16:16:47.798Z,39.78
2023-04-26T16:19:16.428Z,39.86
2023-04-26T16:21:43.728Z,39.14
2023-04-26T16:24:12.263Z,39.60
2023-04-26T16:26:39.649Z,40.06
2023-04-26T16:29:06.973Z,39.76
2023-04-26T16:31:34.716Z,40.42
2023-04-26T16:34:02.057Z,40.11
2023-04-26T16:36:29.377Z,40.39
2023-04-26T16:38:56.738Z,40.69
2023-04-26T16:41:24.570Z,40.15
2023-04-26T16:43:54.053Z,39.08
2023-04-26T16:46:21.460Z,39.89
2023-04-26T16:48:48.850Z,40.85
2023-04-26T16:51:16.178Z,41.34
2023-04-26T16:53:43.576Z,41.75
2023-04-26T16:56:11.085Z,41.56
2023-04-26T16:58:38.472Z,42.19
2023-04-26T17:01:06.049Z,42.32
2023-04-26T17:03:33.674Z,42.08
2023-04-26T17:06:01.599Z,42.21
2023-04-26T17:08:28.967Z,42.36
2023-04-26T17:10:56.411Z,42.92
2023-04-26T17:13:24.262Z,42.98
2023-04-26T17:15:53.965Z,42.54
2023-04-26T17:18:21.941Z,42.77
2023-04-26T17:20:53.415Z,43.17
2023-04-26T17:23:21.173Z,42.90
2023-04-26T17:25:48.721Z,43.18
2023-04-26T17:28:16.419Z,43.19
2023-04-26T17:30:43.944Z,43.66
2023-04-26T17:33:11.494Z,43.78
2023-04-26T17:35:38.932Z,44.32
2023-04-26T17:38:06.288Z,44.33
2023-04-26T17:40:33.823Z,43.75
2023-04-26T17:43:01.427Z,42.23
2023-04-26T17:45:28.830Z,42.99
2023-04-26T17:48:29.597Z,43.52
2023-04-26T17:50:57.187Z,43.52
2023-04-26T17:53:24.476Z,42.81
2023-04-26T17:55:52.946Z,43.06
2023-04-26T17:58:20.685Z,43.00
2023-04-26T18:00:51.135Z,43.55
2023-04-26T18:03:20.340Z,44.49
2023-04-26T18:05:48.276Z,44.05
2023-04-26T18:08:15.766Z,44.09
2023-04-26T18:10:43.052Z,44.92
2023-04-26T18:13:11.444Z,45.09
2023-04-26T18:15:38.874Z,44.85
2023-04-26T18:18:08.118Z,44.39
2023-04-26T18:20:36.829Z,44.22
2023-04-26T18:23:04.138Z,44.35
2023-04-26T18:25:31.392Z,44.21
2023-04-26T18:27:58.726Z,43.91
2023-04-26T18:30:26.039Z,43.99
2023-04-26T18:32:53.419Z,44.30
2023-04-26T18:35:20.943Z,44.22
2023-04-26T18:37:48.261Z,44.37
2023-04-26T18:40:15.581Z,44.58
2023-04-26T18:42:44.950Z,44.46
2023-04-26T18:45:12.762Z,43.89
2023-04-26T18:47:40.187Z,44.58
2023-04-26T18:50:08.309Z,44.83
2023-04-26T18:52:35.755Z,46.37
2023-04-26T18:55:03.143Z,47.63
2023-04-26T18:57:30.519Z,48.59
2023-04-26T18:59:59.475Z,49.83
2023-04-26T19:02:27.074Z,50.48
2023-04-26T19:04:54.688Z,51.53
2023-04-26T19:07:22.115Z,52.25
2023-04-26T19:09:54.143Z,52.44
2023-04-26T19:12:22.284Z,53.23
2023-04-26T19:14:49.581Z,53.39
2023-04-26T19:17:16.856Z,53.05
2023-04-26T19:19:44.189Z,53.10
2023-04-26T19:22:11.812Z,52.92
2023-04-26T19:24:39.118Z,54.18
2023-04-26T19:27:06.460Z,54.90
2023-04-26T19:29:33.872Z,55.73
2023-04-26T19:32:04.529Z,56.03
2023-04-26T19:34:32.994Z,55.76
2023-04-26T19:37:01.291Z,56.41
2023-04-26T19:39:28.708Z,56.32
2023-04-26T19:41:56.277Z,56.81
2023-04-26T19:44:23.655Z,57.07
2023-04-26T19:46:51.063Z,57.28
2023-04-26T19:49:18.439Z,55.76
2023-04-26T19:51:45.851Z,55.46
2023-04-26T19:54:13.329Z,55.43
2023-04-26T19:56:40.725Z,54.76
2023-04-26T19:59:08.391Z,54.44
2023-04-26T20:01:36.027Z,55.51
2023-04-26T20:04:03.572Z,55.68
2023-04-26T20:06:34.001Z,55.81
2023-04-26T20:09:01.548Z,56.41
2023-04-26T20:11:28.990Z,56.12
2023-04-26T20:13:56.412Z,56.46
2023-04-26T20:16:23.873Z,56.54
2023-04-26T20:18:51.484Z,56.02
2023-04-26T20:21:18.830Z,56.63
2023-04-26T20:23:46.356Z,56.97
2023-04-26T20:26:13.606Z,57.12
2023-04-26T20:28:41.031Z,56.84
2023-04-26T20:31:08.392Z,56.84
2023-04-26T20:33:35.752Z,56.80
2023-04-26T20:36:03.229Z,57.03
2023-04-26T20:38:30.585Z,57.26
2023-04-26T20:40:57.898Z,57.40
2023-04-26T20:43:25.457Z,57.03
2023-04-26T20:45:52.904Z,57.34
2023-04-26T20:48:30.590Z,57.13
2023-04-26T20:51:00.860Z,57.43
2023-04-26T20:53:28.367Z,57.25
2023-04-26T20:55:56.015Z,57.08
2023-04-26T20:58:23.870Z,57.58
2023-04-26T21:00:55.542Z,57.65
2023-04-26T21:03:23.324Z,57.40
2023-04-26T21:05:51.149Z,57.18
2023-04-26T21:08:18.559Z,57.33
2023-04-26T21:10:45.947Z,57.36
2023-04-26T21:13:14.146Z,57.20
2023-04-26T21:15:41.646Z,57.67
2023-04-26T21:18:09.050Z,57.39
2023-04-26T21:20:36.401Z,57.00
2023-04-26T21:23:03.829Z,56.83
2023-04-26T21:25:31.575Z,56.61
2023-04-26T21:27:58.908Z,56.23
2023-04-26T21:30:26.846Z,56.21
2023-04-26T21:32:54.281Z,56.46
2023-04-26T21:35:21.852Z,56.30
2023-04-26T21:37:49.254Z,56.49
2023-04-26T21:40:16.749Z,56.58
2023-04-26T21:42:48.886Z,56.80
2023-04-26T21:45:21.886Z,56.76
2023-04-26T21:47:49.450Z,56.31
2023-04-26T21:50:17.053Z,56.93
2023-04-26T21:52:44.426Z,56.71
2023-04-26T21:55:11.827Z,57.46
2023-04-26T21:57:39.215Z,57.32
2023-04-26T22:00:11.479Z,57.84
2023-04-26T22:02:42.026Z,58.01
2023-04-26T22:05:09.770Z,57.48
2023-04-26T22:07:37.097Z,57.85
2023-04-26T22:10:04.807Z,57.52
2023-04-26T22:12:32.234Z,58.16
2023-04-26T22:14:59.674Z,58.38
2023-04-26T22:17:27.313Z,58.67
2023-04-26T22:19:55.599Z,58.53
2023-04-26T22:22:22.932Z,57.79
2023-04-26T22:24:50.893Z,58.16
2023-04-26T22:27:18.456Z,58.04
2023-04-26T22:29:45.795Z,57.39
2023-04-26T22:32:13.161Z,57.25
2023-04-26T22:34:43.065Z,57.87
2023-04-26T22:37:20.669Z,57.35
2023-04-26T22:39:49.287Z,57.86
2023-04-26T22:42:16.699Z,58.29
2023-04-26T22:44:44.085Z,58.39
2023-04-26T22:47:11.453Z,58.92
2023-04-26T22:49:38.844Z,59.19
2023-04-26T22:52:12.003Z,59.41
2023-04-26T22:54:44.542Z,60.38
2023-04-26T22:57:12.016Z,60.41
2023-04-26T22:59:39.444Z,60.15
2023-04-26T23:02:07.185Z,60.29
2023-04-26T23:04:34.740Z,60.32
2023-04-26T23:07:02.183Z,60.51
2023-04-26T23:09:29.853Z,60.83
2023-04-26T23:11:59.316Z,61.28
2023-04-26T23:14:29.659Z,60.65
2023-04-26T23:16:59.892Z,60.20
2023-04-26T23:19:28.164Z,61.14
2023-04-26T23:21:55.629Z,61.20
2023-04-26T23:24:23.007Z,61.64
2023-04-26T23:26:50.336Z,61.41
2023-04-26T23:29:17.742Z,61.39
2023-04-26T23:31:45.152Z,59.86
2023-04-26T23:34:12.478Z,60.91
2023-04-26T23:36:39.818Z,60.50
2023-04-26T23:39:07.273Z,59.62
2023-04-26T23:41:34.663Z,59.67
2023-04-26T23:44:01.962Z,58.93
2023-04-26T23:46:29.627Z,58.66
2023-04-26T23:48:58.606Z,58.38
2023-04-26T23:51:26.831Z,57.91
2023-04-26T23:53:54.183Z,57.32
2023-04-26T23:56:21.530Z,58.07
2023-04-26T23:58:48.830Z,57.24
